sensor_id;sensor_type;location;lat;lon;timestamp;pressure;altitude;pressure_sealevel;temperature;humidity
10145;BME280;5113;41.822;23.564;2023-01-29T00:00:02;-10979.44;;;1.63;97.71
10145;BME280;5113;41.822;23.564;2023-01-29T00:03:14;-10971.59;;;1.35;99.19
10145;BME280;5113;41.822;23.564;2023-01-29T00:06:21;-10969.91;;;1.28;100.00
10145;BME280;5113;41.822;23.564;2023-01-29T00:09:29;-10971.88;;;1.36;100.00
10145;BME280;5113;41.822;23.564;2023-01-29T00:12:35;-10975.78;;;1.50;99.96
10145;BME280;5113;41.822;23.564;2023-01-29T00:15:42;-10972.28;;;1.37;100.00
10145;BME280;5113;41.822;23.564;2023-01-29T00:18:48;-10967.94;;;1.21;100.00
10145;BME280;5113;41.822;23.564;2023-01-29T00:21:54;-10965.97;;;1.14;100.00
10145;BME280;5113;41.822;23.564;2023-01-29T00:25:02;-10964.59;;;1.09;99.44
10145;BME280;5113;41.822;23.564;2023-01-29T00:28:09;-10971.31;;;1.33;97.73
10145;BME280;5113;41.822;23.564;2023-01-29T00:31:17;-10964.03;;;1.07;97.10
10145;BME280;5113;41.822;23.564;2023-01-29T00:34:24;-10963.19;;;1.04;98.16
10145;BME280;5113;41.822;23.564;2023-01-29T00:37:30;-10958.69;;;0.88;100.00
10145;BME280;5113;41.822;23.564;2023-01-29T00:40:38;-10960.66;;;0.95;98.54
10145;BME280;5113;41.822;23.564;2023-01-29T00:44:02;-10956.72;;;0.81;99.84
10145;BME280;5113;41.822;23.564;2023-01-29T00:47:26;-10956.03;;;0.78;99.03
10145;BME280;5113;41.822;23.564;2023-01-29T00:50:38;-10958.13;;;0.86;100.00
10145;BME280;5113;41.822;23.564;2023-01-29T00:53:44;-10942.72;;;0.30;100.00
10145;BME280;5113;41.822;23.564;2023-01-29T00:56:52;-10949.88;;;0.56;100.00
10145;BME280;5113;41.822;23.564;2023-01-29T00:59:59;-10949.16;;;0.53;100.00
10145;BME280;5113;41.822;23.564;2023-01-29T01:03:05;-10951.13;;;0.60;100.00
10145;BME280;5113;41.822;23.564;2023-01-29T01:06:11;-10952.25;;;0.64;100.00
10145;BME280;5113;41.822;23.564;2023-01-29T01:09:17;-10954.06;;;0.71;100.00
10145;BME280;5113;41.822;23.564;2023-01-29T01:12:42;-10950.16;;;0.57;100.00
10145;BME280;5113;41.822;23.564;2023-01-29T01:15:49;-10944.69;;;0.37;100.00
10145;BME280;5113;41.822;23.564;2023-01-29T01:18:55;-10943.00;;;0.31;100.00
10145;BME280;5113;41.822;23.564;2023-01-29T01:22:01;-10950.16;;;0.57;100.00
10145;BME280;5113;41.822;23.564;2023-01-29T01:25:08;-10943.16;;;0.31;100.00
10145;BME280;5113;41.822;23.564;2023-01-29T01:28:16;-10948.31;;;0.50;100.00
10145;BME280;5113;41.822;23.564;2023-01-29T01:31:22;-10948.31;;;0.50;100.00
10145;BME280;5113;41.822;23.564;2023-01-29T01:34:29;-10948.31;;;0.50;100.00
10145;BME280;5113;41.822;23.564;2023-01-29T01:37:36;-10953.09;;;0.68;100.00
10145;BME280;5113;41.822;23.564;2023-01-29T01:40:44;-10941.31;;;0.25;100.00
10145;BME280;5113;41.822;23.564;2023-01-29T01:43:57;-10947.50;;;0.47;100.00
10145;BME280;5113;41.822;23.564;2023-01-29T01:47:05;-10940.91;;;0.23;100.00
10145;BME280;5113;41.822;23.564;2023-01-29T01:50:15;-10951.13;;;0.60;100.00
10145;BME280;5113;41.822;23.564;2023-01-29T01:53:25;-10951.25;;;0.61;100.00
10145;BME280;5113;41.822;23.564;2023-01-29T01:56:34;-10944.41;;;0.36;100.00
10145;BME280;5113;41.822;23.564;2023-01-29T01:59:49;-10950.28;;;0.57;100.00
10145;BME280;5113;41.822;23.564;2023-01-29T02:02:57;-10952.25;;;0.64;100.00
10145;BME280;5113;41.822;23.564;2023-01-29T02:06:22;-10945.81;;;0.41;100.00
10145;BME280;5113;41.822;23.564;2023-01-29T02:09:49;-10950.00;;;0.56;100.00
10145;BME280;5113;41.822;23.564;2023-01-29T02:12:57;-10956.31;;;0.79;100.00
10145;BME280;5113;41.822;23.564;2023-01-29T02:16:05;-10951.69;;;0.62;100.00
10145;BME280;5113;41.822;23.564;2023-01-29T02:19:16;-10953.38;;;0.69;100.00
10145;BME280;5113;41.822;23.564;2023-01-29T02:22:44;-10952.53;;;0.65;100.00
10145;BME280;5113;41.822;23.564;2023-01-29T02:26:07;-10951.97;;;0.63;100.00
10145;BME280;5113;41.822;23.564;2023-01-29T02:29:22;-10947.91;;;0.49;100.00
10145;BME280;5113;41.822;23.564;2023-01-29T02:32:36;-10944.69;;;0.37;100.00
10145;BME280;5113;41.822;23.564;2023-01-29T02:36:07;-10951.97;;;0.63;100.00
10145;BME280;5113;41.822;23.564;2023-01-29T02:39:26;-10952.53;;;0.65;100.00
10145;BME280;5113;41.822;23.564;2023-01-29T02:42:38;-10963.19;;;1.04;99.37
10145;BME280;5113;41.822;23.564;2023-01-29T02:45:53;-10954.34;;;0.72;99.88
10145;BME280;5113;41.822;23.564;2023-01-29T02:49:09;-10945.81;;;0.41;100.00
10145;BME280;5113;41.822;23.564;2023-01-29T02:52:18;-10949.44;;;0.54;100.00
10145;BME280;5113;41.822;23.564;2023-01-29T02:55:34;-10957.00;;;0.82;100.00
10145;BME280;5113;41.822;23.564;2023-01-29T02:58:43;-10956.59;;;0.80;100.00
10145;BME280;5113;41.822;23.564;2023-01-29T03:01:55;-10951.25;;;0.61;99.87
10145;BME280;5113;41.822;23.564;2023-01-29T03:05:10;-10957.16;;;0.82;99.67
10145;BME280;5113;41.822;23.564;2023-01-29T03:08:24;-10954.50;;;0.73;98.61
10145;BME280;5113;41.822;23.564;2023-01-29T03:11:43;-10951.97;;;0.63;100.00
10145;BME280;5113;41.822;23.564;2023-01-29T03:14:51;-10954.22;;;0.72;100.00
10145;BME280;5113;41.822;23.564;2023-01-29T03:18:17;-10951.25;;;0.61;100.00
10145;BME280;5113;41.822;23.564;2023-01-29T03:21:29;-10953.78;;;0.70;100.00
10145;BME280;5113;41.822;23.564;2023-01-29T03:25:00;-10958.13;;;0.86;100.00
10145;BME280;5113;41.822;23.564;2023-01-29T03:28:27;-10957.00;;;0.82;100.00
10145;BME280;5113;41.822;23.564;2023-01-29T03:31:54;-10958.00;;;0.85;100.00
10145;BME280;5113;41.822;23.564;2023-01-29T03:35:15;-10962.34;;;1.01;100.00
10145;BME280;5113;41.822;23.564;2023-01-29T03:38:24;-10949.72;;;0.55;100.00
10145;BME280;5113;41.822;23.564;2023-01-29T03:41:35;-10950.28;;;0.57;100.00
10145;BME280;5113;41.822;23.564;2023-01-29T03:44:50;-10956.16;;;0.79;100.00
10145;BME280;5113;41.822;23.564;2023-01-29T03:48:04;-10951.69;;;0.62;100.00
10145;BME280;5113;41.822;23.564;2023-01-29T03:51:23;-10954.50;;;0.73;100.00
10145;BME280;5113;41.822;23.564;2023-01-29T03:54:39;-10951.69;;;0.62;100.00
10145;BME280;5113;41.822;23.564;2023-01-29T03:57:55;-10949.44;;;0.54;100.00
10145;BME280;5113;41.822;23.564;2023-01-29T04:01:08;-10954.78;;;0.74;100.00
10145;BME280;5113;41.822;23.564;2023-01-29T04:04:18;-10955.06;;;0.75;100.00
10145;BME280;5113;41.822;23.564;2023-01-29T04:07:29;-10957.00;;;0.82;100.00
10145;BME280;5113;41.822;23.564;2023-01-29T04:10:41;-10945.53;;;0.40;100.00
10145;BME280;5113;41.822;23.564;2023-01-29T04:13:50;-10953.38;;;0.69;100.00
10145;BME280;5113;41.822;23.564;2023-01-29T04:16:59;-10952.25;;;0.64;100.00
10145;BME280;5113;41.822;23.564;2023-01-29T04:20:08;-10951.13;;;0.60;100.00
10145;BME280;5113;41.822;23.564;2023-01-29T04:23:21;-10946.66;;;0.44;100.00
10145;BME280;5113;41.822;23.564;2023-01-29T04:26:42;-10949.72;;;0.55;100.00
10145;BME280;5113;41.822;23.564;2023-01-29T04:30:07;-10951.41;;;0.61;100.00
10145;BME280;5113;41.822;23.564;2023-01-29T04:33:29;-10951.41;;;0.61;100.00
10145;BME280;5113;41.822;23.564;2023-01-29T04:36:45;-10953.09;;;0.68;100.00
10145;BME280;5113;41.822;23.564;2023-01-29T04:40:02;-10949.44;;;0.54;100.00
10145;BME280;5113;41.822;23.564;2023-01-29T04:43:16;-10943.44;;;0.32;100.00
10145;BME280;5113;41.822;23.564;2023-01-29T04:46:31;-10948.59;;;0.51;100.00
10145;BME280;5113;41.822;23.564;2023-01-29T04:49:44;-10944.41;;;0.36;100.00
10145;BME280;5113;41.822;23.564;2023-01-29T04:52:57;-10948.19;;;0.50;100.00
10145;BME280;5113;41.822;23.564;2023-01-29T04:56:12;-10951.13;;;0.60;100.00
10145;BME280;5113;41.822;23.564;2023-01-29T04:59:26;-10952.09;;;0.64;100.00
10145;BME280;5113;41.822;23.564;2023-01-29T05:02:36;-10944.25;;;0.36;100.00
10145;BME280;5113;41.822;23.564;2023-01-29T05:05:46;-10947.78;;;0.48;100.00
10145;BME280;5113;41.822;23.564;2023-01-29T05:08:53;-10946.09;;;0.42;100.00
10145;BME280;5113;41.822;23.564;2023-01-29T05:12:03;-10940.19;;;0.21;100.00
10145;BME280;5113;41.822;23.564;2023-01-29T05:15:13;-10943.97;;;0.35;100.00
10145;BME280;5113;41.822;23.564;2023-01-29T05:18:21;-10944.69;;;0.37;100.00
10145;BME280;5113;41.822;23.564;2023-01-29T05:21:27;-10947.06;;;0.46;100.00
10145;BME280;5113;41.822;23.564;2023-01-29T05:24:34;-10943.97;;;0.35;100.00
10145;BME280;5113;41.822;23.564;2023-01-29T05:27:42;-10944.69;;;0.37;100.00
10145;BME280;5113;41.822;23.564;2023-01-29T05:31:05;-10940.63;;;0.22;100.00
10145;BME280;5113;41.822;23.564;2023-01-29T05:34:13;-10948.88;;;0.52;100.00
10145;BME280;5113;41.822;23.564;2023-01-29T05:37:19;-10949.16;;;0.53;100.00
10145;BME280;5113;41.822;23.564;2023-01-29T05:40:25;-10945.38;;;0.40;100.00
10145;BME280;5113;41.822;23.564;2023-01-29T05:43:33;-10949.44;;;0.54;100.00
10145;BME280;5113;41.822;23.564;2023-01-29T05:46:42;-10957.84;;;0.85;100.00
10145;BME280;5113;41.822;23.564;2023-01-29T05:49:48;-10957.00;;;0.82;100.00
10145;BME280;5113;41.822;23.564;2023-01-29T05:52:55;-10953.38;;;0.69;100.00
10145;BME280;5113;41.822;23.564;2023-01-29T05:56:02;-10953.66;;;0.70;100.00
10145;BME280;5113;41.822;23.564;2023-01-29T05:59:10;-10952.53;;;0.65;100.00
10145;BME280;5113;41.822;23.564;2023-01-29T06:02:16;-10952.25;;;0.64;100.00
10145;BME280;5113;41.822;23.564;2023-01-29T06:05:23;-10950.28;;;0.57;100.00
10145;BME280;5113;41.822;23.564;2023-01-29T06:08:28;-10947.63;;;0.48;100.00
10145;BME280;5113;41.822;23.564;2023-01-29T06:11:35;-10949.88;;;0.56;100.00
10145;BME280;5113;41.822;23.564;2023-01-29T06:14:42;-10950.00;;;0.56;100.00
10145;BME280;5113;41.822;23.564;2023-01-29T06:17:48;-10950.00;;;0.56;100.00
10145;BME280;5113;41.822;23.564;2023-01-29T06:20:54;-10946.09;;;0.42;100.00
10145;BME280;5113;41.822;23.564;2023-01-29T06:24:05;-10950.28;;;0.57;100.00
10145;BME280;5113;41.822;23.564;2023-01-29T06:27:11;-10940.47;;;0.22;100.00
10145;BME280;5113;41.822;23.564;2023-01-29T06:30:19;-10952.25;;;0.64;100.00
10145;BME280;5113;41.822;23.564;2023-01-29T06:33:27;-10960.25;;;0.93;100.00
10145;BME280;5113;41.822;23.564;2023-01-29T06:36:34;-10949.31;;;0.54;100.00
10145;BME280;5113;41.822;23.564;2023-01-29T06:39:40;-10944.97;;;0.38;100.00
10145;BME280;5113;41.822;23.564;2023-01-29T06:42:46;-10949.72;;;0.55;100.00
10145;BME280;5113;41.822;23.564;2023-01-29T06:45:55;-10963.59;;;1.06;100.00
10145;BME280;5113;41.822;23.564;2023-01-29T06:49:01;-10958.28;;;0.86;100.00
10145;BME280;5113;41.822;23.564;2023-01-29T06:52:08;-10957.28;;;0.83;100.00
10145;BME280;5113;41.822;23.564;2023-01-29T06:55:14;-10947.50;;;0.47;100.00
10145;BME280;5113;41.822;23.564;2023-01-29T06:58:20;-10949.72;;;0.55;100.00
10145;BME280;5113;41.822;23.564;2023-01-29T07:01:28;-10953.66;;;0.70;100.00
10145;BME280;5113;41.822;23.564;2023-01-29T07:04:40;-10954.78;;;0.74;100.00
10145;BME280;5113;41.822;23.564;2023-01-29T07:07:46;-10948.59;;;0.51;100.00
10145;BME280;5113;41.822;23.564;2023-01-29T07:10:52;-10952.81;;;0.66;100.00
10145;BME280;5113;41.822;23.564;2023-01-29T07:14:03;-10971.31;;;1.33;100.00
10145;BME280;5113;41.822;23.564;2023-01-29T07:17:11;-10963.75;;;1.06;100.00
10145;BME280;5113;41.822;23.564;2023-01-29T07:20:17;-10965.16;;;1.11;100.00
10145;BME280;5113;41.822;23.564;2023-01-29T07:23:24;-10953.38;;;0.69;100.00
10145;BME280;5113;41.822;23.564;2023-01-29T07:26:30;-10963.19;;;1.04;100.00
10145;BME280;5113;41.822;23.564;2023-01-29T07:29:37;-10971.88;;;1.36;100.00
10145;BME280;5113;41.822;23.564;2023-01-29T07:32:44;-10967.25;;;1.19;100.00
10145;BME280;5113;41.822;23.564;2023-01-29T07:35:50;-10980.41;;;1.67;100.00
10145;BME280;5113;41.822;23.564;2023-01-29T07:38:57;-10984.34;;;1.81;100.00
10145;BME280;5113;41.822;23.564;2023-01-29T07:42:03;-10991.63;;;2.07;100.00
10145;BME280;5113;41.822;23.564;2023-01-29T07:45:10;-11001.16;;;2.42;100.00
10145;BME280;5113;41.822;23.564;2023-01-29T07:48:18;-10993.44;;;2.14;100.00
10145;BME280;5113;41.822;23.564;2023-01-29T07:51:25;-10997.38;;;2.28;100.00
10145;BME280;5113;41.822;23.564;2023-01-29T07:54:31;-10980.56;;;1.67;100.00
10145;BME280;5113;41.822;23.564;2023-01-29T07:57:37;-10991.78;;;2.08;100.00
10145;BME280;5113;41.822;23.564;2023-01-29T08:00:44;-10979.44;;;1.63;100.00
10145;BME280;5113;41.822;23.564;2023-01-29T08:03:52;-11011.41;;;2.79;99.50
10145;BME280;5113;41.822;23.564;2023-01-29T08:06:58;-11022.91;;;3.20;95.59
10145;BME280;5113;41.822;23.564;2023-01-29T08:10:04;-11002.97;;;2.48;98.16
10145;BME280;5113;41.822;23.564;2023-01-29T08:13:10;-10999.63;;;2.36;97.25
10145;BME280;5113;41.822;23.564;2023-01-29T08:16:17;-11021.78;;;3.16;96.77
10145;BME280;5113;41.822;23.564;2023-01-29T08:19:26;-11000.47;;;2.39;97.33
10145;BME280;5113;41.822;23.564;2023-01-29T08:22:33;-11006.91;;;2.62;99.19
10145;BME280;5113;41.822;23.564;2023-01-29T08:25:39;-11008.88;;;2.70;98.37
10145;BME280;5113;41.822;23.564;2023-01-29T08:28:45;-10999.91;;;2.37;97.58
10145;BME280;5113;41.822;23.564;2023-01-29T08:31:51;-11003.81;;;2.51;99.12
10145;BME280;5113;41.822;23.564;2023-01-29T08:34:59;-11003.97;;;2.52;97.83
10145;BME280;5113;41.822;23.564;2023-01-29T08:38:05;-11003.81;;;2.51;100.00
10145;BME280;5113;41.822;23.564;2023-01-29T08:41:12;-10995.41;;;2.21;100.00
10145;BME280;5113;41.822;23.564;2023-01-29T08:44:18;-11000.19;;;2.38;97.94
10145;BME280;5113;41.822;23.564;2023-01-29T08:47:24;-11009.72;;;2.73;97.01
10145;BME280;5113;41.822;23.564;2023-01-29T08:50:34;-11008.31;;;2.68;96.67
10145;BME280;5113;41.822;23.564;2023-01-29T08:53:40;-11007.47;;;2.64;95.32
10145;BME280;5113;41.822;23.564;2023-01-29T08:56:46;-11033.97;;;3.60;93.17
10145;BME280;5113;41.822;23.564;2023-01-29T08:59:52;-11035.81;;;3.67;90.86
10145;BME280;5113;41.822;23.564;2023-01-29T09:02:59;-11049.84;;;4.18;88.52
10145;BME280;5113;41.822;23.564;2023-01-29T09:06:07;-11031.88;;;3.53;90.08
10145;BME280;5113;41.822;23.564;2023-01-29T09:09:14;-11016.72;;;2.98;92.53
10145;BME280;5113;41.822;23.564;2023-01-29T09:12:20;-11029.63;;;3.45;91.75
10145;BME280;5113;41.822;23.564;2023-01-29T09:15:26;-11052.63;;;4.28;87.73
10145;BME280;5113;41.822;23.564;2023-01-29T09:18:33;-11045.91;;;4.04;85.75
10145;BME280;5113;41.822;23.564;2023-01-29T09:21:40;-11061.75;;;4.61;83.87
10145;BME280;5113;41.822;23.564;2023-01-29T09:24:46;-11048.44;;;4.13;86.83
10145;BME280;5113;41.822;23.564;2023-01-29T09:27:53;-11037.50;;;3.73;85.81
10145;BME280;5113;41.822;23.564;2023-01-29T09:31:00;-11070.03;;;4.91;82.69
10145;BME280;5113;41.822;23.564;2023-01-29T09:34:07;-11073.00;;;5.02;79.29
10145;BME280;5113;41.822;23.564;2023-01-29T09:37:14;-11063.59;;;4.68;81.01
10145;BME280;5113;41.822;23.564;2023-01-29T09:40:24;-11065.97;;;4.76;80.49
10145;BME280;5113;41.822;23.564;2023-01-29T09:43:39;-11056.56;;;4.42;83.79
10145;BME280;5113;41.822;23.564;2023-01-29T09:46:47;-11055.16;;;4.37;82.53
10145;BME280;5113;41.822;23.564;2023-01-29T09:50:00;-11039.72;;;3.81;82.10
10145;BME280;5113;41.822;23.564;2023-01-29T09:53:16;-11040.56;;;3.84;84.71
10145;BME280;5113;41.822;23.564;2023-01-29T09:56:24;-11028.78;;;3.42;81.87
10145;BME280;5113;41.822;23.564;2023-01-29T09:59:32;-11049.41;;;4.16;79.20
10145;BME280;5113;41.822;23.564;2023-01-29T10:03:09;-11046.59;;;4.06;79.92
10145;BME280;5113;41.822;23.564;2023-01-29T10:06:26;-11051.25;;;4.23;79.93
10145;BME280;5113;41.822;23.564;2023-01-29T10:09:50;-11033.84;;;3.60;78.84
10145;BME280;5113;41.822;23.564;2023-01-29T10:13:06;-11060.78;;;4.57;77.23
10145;BME280;5113;41.822;23.564;2023-01-29T10:16:28;-11065.00;;;4.73;77.46
10145;BME280;5113;41.822;23.564;2023-01-29T10:19:50;-11040.72;;;3.85;81.50
10145;BME280;5113;41.822;23.564;2023-01-29T10:23:17;-11062.19;;;4.62;77.99
10145;BME280;5113;41.822;23.564;2023-01-29T10:26:28;-11041.97;;;3.89;81.73
10145;BME280;5113;41.822;23.564;2023-01-29T10:29:40;-11053.19;;;4.30;80.15
10145;BME280;5113;41.822;23.564;2023-01-29T10:32:47;-11052.06;;;4.26;79.88
10145;BME280;5113;41.822;23.564;2023-01-29T10:35:59;-11038.59;;;3.77;80.86
10145;BME280;5113;41.822;23.564;2023-01-29T10:39:14;-11038.06;;;3.75;79.56
10145;BME280;5113;41.822;23.564;2023-01-29T10:42:29;-11061.06;;;4.58;78.04
10145;BME280;5113;41.822;23.564;2023-01-29T10:45:42;-11048.16;;;4.12;79.77
10145;BME280;5113;41.822;23.564;2023-01-29T10:49:01;-11049.41;;;4.16;77.57
10145;BME280;5113;41.822;23.564;2023-01-29T10:52:24;-11054.47;;;4.35;79.84
10145;BME280;5113;41.822;23.564;2023-01-29T10:55:42;-11047.59;;;4.10;77.71
10145;BME280;5113;41.822;23.564;2023-01-29T10:58:55;-11048.56;;;4.13;77.18
10145;BME280;5113;41.822;23.564;2023-01-29T11:02:13;-11059.81;;;4.54;77.29
10145;BME280;5113;41.822;23.564;2023-01-29T11:05:25;-11063.31;;;4.67;78.96
10145;BME280;5113;41.822;23.564;2023-01-29T11:08:39;-11053.91;;;4.32;77.87
10145;BME280;5113;41.822;23.564;2023-01-29T11:11:49;-11064.56;;;4.71;76.17
10145;BME280;5113;41.822;23.564;2023-01-29T11:15:04;-11045.22;;;4.01;76.61
10145;BME280;5113;41.822;23.564;2023-01-29T11:18:13;-11053.63;;;4.31;78.96
10145;BME280;5113;41.822;23.564;2023-01-29T11:21:21;-11044.94;;;4.00;78.21
10145;BME280;5113;41.822;23.564;2023-01-29T11:24:28;-11060.78;;;4.57;76.58
10145;BME280;5113;41.822;23.564;2023-01-29T11:27:39;-11062.75;;;4.64;75.31
10145;BME280;5113;41.822;23.564;2023-01-29T11:30:49;-11063.88;;;4.69;76.77
10145;BME280;5113;41.822;23.564;2023-01-29T11:34:03;-11058.97;;;4.51;77.01
10145;BME280;5113;41.822;23.564;2023-01-29T11:37:15;-11076.06;;;5.13;75.99
10145;BME280;5113;41.822;23.564;2023-01-29T11:40:34;-11058.13;;;4.48;74.77
10145;BME280;5113;41.822;23.564;2023-01-29T11:43:41;-11055.88;;;4.40;76.07
10145;BME280;5113;41.822;23.564;2023-01-29T11:46:49;-11077.63;;;5.18;75.58
10145;BME280;5113;41.822;23.564;2023-01-29T11:49:56;-11062.47;;;4.63;75.89
10145;BME280;5113;41.822;23.564;2023-01-29T11:53:04;-11042.53;;;3.91;79.18
10145;BME280;5113;41.822;23.564;2023-01-29T11:56:19;-11054.03;;;4.33;81.44
10145;BME280;5113;41.822;23.564;2023-01-29T11:59:38;-11070.19;;;4.91;77.54
10145;BME280;5113;41.822;23.564;2023-01-29T12:02:53;-11057.97;;;4.47;79.31
10145;BME280;5113;41.822;23.564;2023-01-29T12:06:02;-11052.91;;;4.29;79.50
10145;BME280;5113;41.822;23.564;2023-01-29T12:09:14;-11059.53;;;4.53;78.74
10145;BME280;5113;41.822;23.564;2023-01-29T12:12:35;-11043.66;;;3.95;80.52
10145;BME280;5113;41.822;23.564;2023-01-29T12:15:43;-11051.25;;;4.23;80.97
10145;BME280;5113;41.822;23.564;2023-01-29T12:18:55;-11042.81;;;3.92;81.80
10145;BME280;5113;41.822;23.564;2023-01-29T12:22:05;-11045.91;;;4.04;82.76
10145;BME280;5113;41.822;23.564;2023-01-29T12:25:20;-11037.78;;;3.74;83.70
10145;BME280;5113;41.822;23.564;2023-01-29T12:28:41;-11047.59;;;4.10;85.15
10145;BME280;5113;41.822;23.564;2023-01-29T12:31:53;-11044.38;;;3.98;85.24
10145;BME280;5113;41.822;23.564;2023-01-29T12:35:05;-11034.53;;;3.62;86.67
10145;BME280;5113;41.822;23.564;2023-01-29T12:38:17;-11025.72;;;3.30;86.88
10145;BME280;5113;41.822;23.564;2023-01-29T12:41:35;-11044.22;;;3.97;85.96
10145;BME280;5113;41.822;23.564;2023-01-29T12:44:47;-11031.72;;;3.52;84.85
10145;BME280;5113;41.822;23.564;2023-01-29T12:47:57;-11043.09;;;3.93;85.49
10145;BME280;5113;41.822;23.564;2023-01-29T12:51:10;-11025.56;;;3.30;85.60
10145;BME280;5113;41.822;23.564;2023-01-29T12:54:21;-11014.34;;;2.89;89.92
10145;BME280;5113;41.822;23.564;2023-01-29T12:57:37;-11023.03;;;3.21;88.79
10145;BME280;5113;41.822;23.564;2023-01-29T13:00:48;-11018.97;;;3.06;88.88
10145;BME280;5113;41.822;23.564;2023-01-29T13:04:00;-11010.13;;;2.74;91.09
10145;BME280;5113;41.822;23.564;2023-01-29T13:07:13;-11024.88;;;3.27;91.26
10145;BME280;5113;41.822;23.564;2023-01-29T13:10:26;-11017.56;;;3.01;90.18
10145;BME280;5113;41.822;23.564;2023-01-29T13:13:35;-11013.78;;;2.87;92.95
10145;BME280;5113;41.822;23.564;2023-01-29T13:16:47;-11011.69;;;2.80;94.89
10145;BME280;5113;41.822;23.564;2023-01-29T13:19:57;-11006.06;;;2.59;93.52
10145;BME280;5113;41.822;23.564;2023-01-29T13:23:14;-11022.34;;;3.18;93.34
10145;BME280;5113;41.822;23.564;2023-01-29T13:26:23;-11012.25;;;2.82;93.70
10145;BME280;5113;41.822;23.564;2023-01-29T13:29:31;-11013.78;;;2.87;92.47
10145;BME280;5113;41.822;23.564;2023-01-29T13:32:38;-11017.72;;;3.02;92.46
10145;BME280;5113;41.822;23.564;2023-01-29T13:35:45;-11010.56;;;2.76;92.58
10145;BME280;5113;41.822;23.564;2023-01-29T13:39:00;-11016.59;;;2.97;92.76
10145;BME280;5113;41.822;23.564;2023-01-29T13:42:15;-11014.75;;;2.91;92.79
10145;BME280;5113;41.822;23.564;2023-01-29T13:45:24;-11018.84;;;3.06;91.77
10145;BME280;5113;41.822;23.564;2023-01-29T13:48:40;-11004.09;;;2.52;94.62
10145;BME280;5113;41.822;23.564;2023-01-29T13:51:47;-11001.03;;;2.41;95.58
10145;BME280;5113;41.822;23.564;2023-01-29T13:54:56;-11015.31;;;2.93;94.00
10145;BME280;5113;41.822;23.564;2023-01-29T13:58:05;-11008.59;;;2.69;95.89
10145;BME280;5113;41.822;23.564;2023-01-29T14:01:11;-11016.31;;;2.96;93.13
10145;BME280;5113;41.822;23.564;2023-01-29T14:04:23;-11015.19;;;2.92;93.24
10145;BME280;5113;41.822;23.564;2023-01-29T14:07:48;-11007.19;;;2.63;94.22
10145;BME280;5113;41.822;23.564;2023-01-29T14:15:00;-11007.34;;;2.64;94.29
10145;BME280;5113;41.822;23.564;2023-01-29T14:18:17;-11007.63;;;2.65;95.07
10145;BME280;5113;41.822;23.564;2023-01-29T14:21:25;-11007.06;;;2.63;94.80
10145;BME280;5113;41.822;23.564;2023-01-29T14:24:34;-11002.00;;;2.45;94.84
10145;BME280;5113;41.822;23.564;2023-01-29T14:27:45;-11000.88;;;2.41;95.99
10145;BME280;5113;41.822;23.564;2023-01-29T14:30:54;-10997.38;;;2.28;94.83
10145;BME280;5113;41.822;23.564;2023-01-29T14:34:02;-10999.63;;;2.36;95.58
10145;BME280;5113;41.822;23.564;2023-01-29T14:37:19;-11003.25;;;2.49;93.88
10145;BME280;5113;41.822;23.564;2023-01-29T14:40:27;-11001.31;;;2.42;94.48
10145;BME280;5113;41.822;23.564;2023-01-29T14:43:34;-11003.25;;;2.49;95.47
10145;BME280;5113;41.822;23.564;2023-01-29T14:46:43;-10997.94;;;2.30;94.82
10145;BME280;5113;41.822;23.564;2023-01-29T14:49:53;-10995.69;;;2.22;95.63
10145;BME280;5113;41.822;23.564;2023-01-29T14:53:04;-11000.47;;;2.39;95.19
10145;BME280;5113;41.822;23.564;2023-01-29T14:56:16;-10991.63;;;2.07;96.60
10145;BME280;5113;41.822;23.564;2023-01-29T14:59:28;-10993.72;;;2.15;96.35
10145;BME280;5113;41.822;23.564;2023-01-29T15:02:40;-10990.38;;;2.03;97.21
10145;BME280;5113;41.822;23.564;2023-01-29T15:05:48;-10993.72;;;2.15;97.63
10145;BME280;5113;41.822;23.564;2023-01-29T15:09:02;-10992.34;;;2.10;97.20
10145;BME280;5113;41.822;23.564;2023-01-29T15:12:17;-10984.19;;;1.80;98.21
10145;BME280;5113;41.822;23.564;2023-01-29T15:15:32;-10991.06;;;2.05;99.84
10145;BME280;5113;41.822;23.564;2023-01-29T15:18:42;-10999.91;;;2.37;98.24
10145;BME280;5113;41.822;23.564;2023-01-29T15:22:02;-10994.84;;;2.19;97.71
10145;BME280;5113;41.822;23.564;2023-01-29T15:25:13;-10995.13;;;2.20;98.62
10145;BME280;5113;41.822;23.564;2023-01-29T15:28:23;-10997.25;;;2.27;98.63
10145;BME280;5113;41.822;23.564;2023-01-29T15:31:29;-10993.72;;;2.15;98.88
10145;BME280;5113;41.822;23.564;2023-01-29T15:34:41;-10997.66;;;2.29;98.44
10145;BME280;5113;41.822;23.564;2023-01-29T15:37:57;-10987.84;;;1.93;99.23
10145;BME280;5113;41.822;23.564;2023-01-29T15:41:16;-10998.63;;;2.32;98.92
10145;BME280;5113;41.822;23.564;2023-01-29T15:44:22;-10991.06;;;2.05;99.02
10145;BME280;5113;41.822;23.564;2023-01-29T15:47:30;-10997.66;;;2.29;98.04
10145;BME280;5113;41.822;23.564;2023-01-29T15:50:40;-10987.28;;;1.91;97.55
10145;BME280;5113;41.822;23.564;2023-01-29T15:53:49;-10988.13;;;1.94;98.98
10145;BME280;5113;41.822;23.564;2023-01-29T15:56:56;-10992.63;;;2.11;97.33
10145;BME280;5113;41.822;23.564;2023-01-29T16:00:05;-10992.06;;;2.09;97.67
10145;BME280;5113;41.822;23.564;2023-01-29T16:03:13;-10993.31;;;2.13;98.19
10145;BME280;5113;41.822;23.564;2023-01-29T16:06:22;-10990.09;;;2.02;96.71
10145;BME280;5113;41.822;23.564;2023-01-29T16:09:29;-10995.97;;;2.23;96.60
10145;BME280;5113;41.822;23.564;2023-01-29T16:12:36;-10997.94;;;2.30;97.47
10145;BME280;5113;41.822;23.564;2023-01-29T16:15:54;-10996.53;;;2.25;97.02
10145;BME280;5113;41.822;23.564;2023-01-29T16:19:00;-10994.16;;;2.16;97.89
10145;BME280;5113;41.822;23.564;2023-01-29T16:22:19;-11000.19;;;2.38;96.92
10145;BME280;5113;41.822;23.564;2023-01-29T16:25:27;-11000.47;;;2.39;97.09
10145;BME280;5113;41.822;23.564;2023-01-29T16:28:39;-10998.34;;;2.31;97.73
10145;BME280;5113;41.822;23.564;2023-01-29T16:31:46;-10991.78;;;2.08;98.14
10145;BME280;5113;41.822;23.564;2023-01-29T16:34:55;-10994.84;;;2.19;98.01
10145;BME280;5113;41.822;23.564;2023-01-29T16:38:06;-11001.31;;;2.42;96.44
10145;BME280;5113;41.822;23.564;2023-01-29T16:41:28;-11000.47;;;2.39;96.82
10145;BME280;5113;41.822;23.564;2023-01-29T16:44:36;-11001.31;;;2.42;96.74
10145;BME280;5113;41.822;23.564;2023-01-29T16:47:43;-10991.50;;;2.07;97.11